Latest Weather Observations for Cooma Airport

IDN60901

Issued at 9:51 am EST Wednesday 22 September 2021 (issued every 10 minutes, with the page automatically refreshed every 10 minutes)

About weather observations | Map of Canberra area stations | Latest observations for Canberra area | Other Formats
Station Details ID: 070217 Name: COOMA AIRPORT AWS Lat: -36.29 Lon: 148.97 Height: 930.0 m
Data from the previous 72 hours. | See also: Recent months at Cooma Airport
Date/Time
EST
Temp
°C
App
Temp
°C
Dew
Point
°C
Rel
Hum
%
Delta-T
°C
Wind Press
QNH
hPa
Press
MSL
hPa
Rain since
9am
mm
Dir  Spd
km/h
Gust
km/h
Spd
kts
Gust
kts
22/09:30am 9.1 2.4 3.5 68 2.6 SW 28 39 15 21 1023.8 1023.9 0.0
22/09:00am 7.7 0.4 2.6 70 2.2 SW 30 37 16 20 1023.8 1023.9 0.0
22/08:30am 7.3 0.9 3.2 75 1.8 SW 26 33 14 18 1023.4 1023.5 0.0
22/08:00am 6.8 0.8 3.2 78 1.6 SSW 24 35 13 19 1023.1 1023.2 0.0
22/07:30am 6.1 0.1 3.1 81 1.3 SW 24 32 13 17 1023.0 1023.1 0.0
22/07:00am 5.3 0.7 3.5 88 0.8 SW 17 24 9 13 1022.9 1023.0 0.0
22/06:30am 3.4 -1.5 2.1 91 0.5 SW 17 20 9 11 1022.2 1022.3 0.0
22/06:00am 4.3 -0.9 2.3 87 0.8 SW 19 22 10 12 1021.9 1022.0 0.0
22/05:30am 4.1 -0.4 2.1 87 0.8 SW 15 19 8 10 1021.8 1021.9 0.0
22/05:00am 3.9 -1.4 2.1 88 0.8 SW 19 20 10 11 1021.5 1021.5 0.0
22/04:30am 3.2 -1.7 1.7 90 0.6 SW 17 20 9 11 1021.6 1021.6 0.0
22/04:00am 3.2 -0.2 2.0 92 0.5 WSW 9 11 5 6 1021.6 1021.6 0.0
22/03:30am 2.8 -0.6 1.8 93 0.4 SW 9 13 5 7 1021.7 1021.7 0.0
22/03:00am 2.8 -1.9 1.0 88 0.7 WSW 15 17 8 9 1021.7 1021.7 0.0
22/02:30am 3.7 -1.6 1.6 86 0.9 SW 19 20 10 11 1022.1 1022.2 0.0
22/02:00am 3.6 -1.3 2.1 90 0.6 SW 17 20 9 11 1022.7 1022.8 0.0
22/01:30am 3.9 -2.7 2.1 88 0.8 SW 26 33 14 18 1023.0 1023.1 0.0
22/01:00am 3.9 -1.1 1.4 84 1.0 WSW 17 22 9 12 1023.3 1023.4 0.0
22/12:30am 3.5 -1.2 1.2 85 0.9 SW 15 20 8 11 1023.7 1023.8 0.0
22/12:00am 3.4 -2.0 1.1 85 0.9 SW 19 24 10 13 1023.6 1023.6 0.0
 
Date/Time
EST
Temp
°C
App
Temp
°C
Dew
Point
°C
Rel
Hum
%
Delta-T
°C
Wind Press
QNH
hPa
Press
MSL
hPa
Rain since
9am
mm
Dir  Spd
km/h
Gust
km/h
Spd
kts
Gust
kts
21/11:30pm 3.2 -3.6 1.1 86 0.9 SW 26 32 14 17 1023.2 1023.3 0.0
21/11:00pm 3.0 -2.4 1.4 89 0.7 SW 19 26 10 14 1023.2 1023.3 0.0
21/10:30pm 2.7 -2.7 1.5 92 0.5 WSW 19 26 10 14 1023.3 1023.4 0.0
21/10:00pm 2.0 -1.8 1.7 98 0.1 SW 11 15 6 8 1023.4 1023.5 0.0
21/09:30pm 1.0 -4.2 0.4 96 0.2 SW 17 20 9 11 1023.4 1023.5 0.0
21/09:00pm 0.9 -4.7 0.0 94 0.3 SW 19 22 10 12 1023.2 1023.3 0.0
21/08:30pm 0.9 -4.7 -0.2 92 0.4 SW 19 20 10 11 1023.4 1023.5 0.0
21/08:00pm 1.6 -4.2 0.1 90 0.6 SW 20 22 11 12 1023.0 1023.1 0.0
21/07:30pm 2.2 -3.5 0.4 88 0.7 SSW 20 24 11 13 1022.7 1022.8 0.0
21/07:00pm 2.3 -3.5 0.0 85 0.9 SSW 20 26 11 14 1021.9 1022.0 0.0
21/06:30pm 3.3 -1.9 0.0 79 1.3 SSW 17 22 9 12 1021.4 1021.4 0.0
21/06:00pm 4.1 -1.9 0.8 79 1.3 SSW 22 28 12 15 1020.6 1020.6 0.0
21/05:30pm 5.0 -1.2 -0.2 69 2.1 SW 22 30 12 16 1020.5 1020.5 0.0
21/05:00pm 5.1 -3.1 -1.1 64 2.4 SSW 32 41 17 22 1020.5 1020.5 0.0
21/04:30pm 6.7 -2.4 -0.3 61 2.9 SSW 37 48 20 26 1019.9 1020.0 0.0
21/04:00pm 7.9 -1.6 -0.6 55 3.5 SSW 39 50 21 27 1019.7 1019.7 0.0
21/03:30pm 8.5 -0.6 -0.8 52 3.8 SSW 37 50 20 27 1019.6 1019.6 0.0
21/03:00pm 8.6 0.7 1.1 59 3.2 SSW 32 41 17 22 1019.6 1019.6 0.0
21/02:30pm 8.3 0.8 1.5 62 3.0 SSW 30 39 16 21 1019.6 1019.6 0.0
21/02:00pm 7.3 -1.5 -1.1 55 3.4 SSW 35 44 19 24 1019.3 1019.3 0.0
21/01:30pm 8.2 -1.6 0.0 56 3.4 SSW 41 54 22 29 1018.7 1018.7 0.0
21/01:00pm 8.2 -1.6 0.0 56 3.4 SSW 41 56 22 30 1018.4 1018.4 0.0
21/12:47pm 7.8 -2.1 -0.7 55 3.5 SSW 41 59 22 32 1018.3 1018.3 0.0
21/12:30pm 7.9 -2.0 1.5 64 2.8 SSW 43 54 23 29 1018.6 1018.6 0.0
21/12:00pm 5.0 -5.7 0.4 72 1.9 SSW 46 59 25 32 1018.7 1018.7 0.0
21/11:49am 6.2 -3.2 -0.3 63 2.6 SSW 39 59 21 32 1018.6 1018.6 0.0
21/11:30am 7.0 -2.2 1.5 68 2.4 SSW 39 52 21 28 1018.6 1018.6 0.0
21/11:01am 5.5 -3.5 2.7 82 1.2 SSW 39 57 21 31 1018.5 1018.5 0.0
21/11:00am 5.7 -3.6 3.2 84 1.1 SSW 41 57 22 31 1018.5 1018.5 0.0
21/10:30am 4.1 -6.0 1.5 83 1.1 SSW 44 56 24 30 1018.4 1018.4 0.0
21/10:27am 4.3 -5.5 2.0 85 1.0 SSW 43 56 23 30 1018.3 1018.3 0.0
21/10:00am 4.2 -5.1 2.7 90 0.6 SW 41 52 22 28 1018.0 1017.9 0.0
21/09:30am 3.8 -5.0 3.4 97 0.2 SSW 39 52 21 28 1017.5 1017.5 0.0
21/09:03am 2.4 -4.5 2.3 99 0.0 SW 28 39 15 21 1017.3 1017.3 0.0
21/09:00am 2.5 -4.0 2.4 99 0.0 SW 26 32 14 17 1017.3 1017.3 2.0
21/08:32am 1.5 -6.3 1.4 99 0.0 SW 32 41 17 22 1016.8 1016.7 1.4
21/08:30am 1.4 -6.5 1.3 99 0.0 SW 32 41 17 22 1016.7 1016.6 1.4
21/08:00am 1.2 -6.3 0.9 98 0.1 SW 30 35 16 19 1016.2 1016.2 1.4
21/07:48am 1.8 -4.9 1.7 99 0.0 SW 26 33 14 18 1015.9 1015.8 1.4
21/07:43am 1.6 -5.5 1.5 99 0.0 SW 28 35 15 19 1015.8 1015.7 1.4
21/07:30am 0.5 -6.8 0.2 98 0.1 SW 28 33 15 18 1015.7 1015.6 1.4
21/07:06am 0.3 -5.4 -0.8 92 0.4 SW 19 26 10 14 1015.2 1015.2 1.2
21/07:00am 0.4 -5.3 -0.9 91 0.5 SSW 19 24 10 13 1015.0 1014.9 1.0
21/06:55am 0.4 -5.5 -1.0 90 0.5 SW 20 28 11 15 1015.0 1014.9 1.0
21/06:37am 0.0 -7.9 -1.6 89 0.6 SW 30 39 16 21 1014.6 1014.5 1.0
21/06:30am 0.2 -6.6 -1.7 87 0.7 SW 24 30 13 16 1014.2 1014.1 1.0
21/06:00am -1.8 -7.3 -2.2 97 0.1 SW 17 20 9 11 1013.7 1013.6 1.0
21/05:30am -2.5 -7.7 -3.0 96 0.1 SW 15 19 8 10 1013.4 1013.3 1.0
21/05:00am -2.7 -8.7 -3.1 97 0.0 SW 19 22 10 12 1013.0 1012.9 1.0
21/04:30am -2.3 -7.9 -2.8 96 0.1 SSW 17 19 9 10 1012.5 1012.4 1.0
21/04:07am -2.0 -7.9 -2.3 98 0.0 SW 19 20 10 11 1012.2 1012.0 1.0
21/04:00am -1.6 -7.5 -1.9 98 0.0 SW 19 22 10 12 1012.3 1012.1 1.0
21/03:46am -1.2 -7.0 -1.5 98 0.1 SW 19 20 10 11 1012.2 1012.0 1.0
21/03:33am -0.9 -7.2 -1.3 97 0.1 SW 22 30 12 16 1012.2 1012.0 1.0
21/03:30am -0.9 -7.2 -1.3 97 0.1 SSW 22 30 12 16 1012.3 1012.1 1.0
21/03:00am -2.9 -7.9 -4.2 91 0.3 SSW 13 15 7 8 1011.8 1011.7 1.0
21/02:30am -2.0 -6.9 -3.6 89 0.5 WSW 13 17 7 9 1011.8 1011.7 1.0
21/02:00am -1.8 -6.4 -3.7 87 0.6 SW 11 15 6 8 1011.8 1011.7 1.0
21/01:30am -0.8 -5.3 -3.5 82 0.9 SSW 11 15 6 8 1011.7 1011.6 1.0
21/01:00am 0.7 -4.5 -2.9 77 1.3 W 15 22 8 12 1011.7 1011.6 1.0
21/12:30am 0.4 -4.4 -2.6 80 1.1 WNW 13 17 7 9 1011.6 1011.5 1.0
21/12:00am -1.0 -4.5 -3.2 85 0.7 WSW 6 9 3 5 1011.6 1011.5 1.0
 
Date/Time
EST
Temp
°C
App
Temp
°C
Dew
Point
°C
Rel
Hum
%
Delta-T
°C
Wind Press
QNH
hPa
Press
MSL
hPa
Rain since
9am
mm
Dir  Spd
km/h
Gust
km/h
Spd
kts
Gust
kts
20/11:30pm -0.3 -3.2 -1.4 92 0.4 NW 4 9 2 5 1011.5 1011.4 1.0
20/11:00pm 0.1 -3.8 -1.6 88 0.6 SW 9 9 5 5 1011.5 1011.4 1.0
20/10:30pm 1.5 -2.6 -0.4 87 0.7 SSW 11 17 6 9 1011.6 1011.5 1.0
20/10:00pm 2.5 -1.7 -0.8 79 1.3 SW 11 17 6 9 1011.6 1011.5 1.0
20/09:30pm 3.2 -0.9 0.1 80 1.2 W 11 15 6 8 1011.7 1011.6 1.0
20/09:00pm 2.7 -0.9 0.9 88 0.7 NW 9 13 5 7 1011.4 1011.2 1.0
20/08:30pm 2.1 -2.3 0.2 87 0.7 S 13 17 7 9 1011.5 1011.4 1.0
20/08:00pm 2.8 -3.0 0.0 82 1.1 W 20 30 11 16 1011.4 1011.2 1.0
20/07:30pm 3.2 -2.4 0.1 80 1.2 WNW 19 33 10 18 1011.0 1010.8 1.0
20/07:11pm 4.4 -2.7 -1.0 68 2.1 W 26 50 14 27 1010.9 1010.7 0.6
20/07:00pm 3.9 -0.9 -2.7 62 2.5 WNW 13 19 7 10 1010.4 1010.2 0.6
20/06:30pm 4.0 -0.3 -2.0 65 2.3 W 11 17 6 9 1010.2 1010.0 0.6
20/06:00pm 4.1 -2.4 -2.3 63 2.4 WSW 22 30 12 16 1010.1 1009.9 0.6
20/05:30pm 4.9 -1.5 -1.5 63 2.5 W 22 30 12 16 1009.9 1009.7 0.6
20/05:00pm 5.4 -1.5 0.4 70 2.1 W 26 39 14 21 1009.8 1009.6 0.6
20/04:30pm 6.0 -1.2 1.0 70 2.1 W 28 37 15 20 1009.3 1009.1 0.6
20/04:00pm 6.1 -2.0 -0.2 64 2.6 W 32 43 17 23 1009.2 1009.0 0.6
20/03:50pm 7.4 0.2 0.6 62 2.9 WNW 28 46 15 25 1008.9 1008.7 0.6
20/03:30pm 6.7 -0.6 -0.1 62 2.8 WNW 28 44 15 24 1009.0 1008.8 0.6
20/03:00pm 7.2 0.5 1.5 67 2.5 WNW 26 41 14 22 1009.2 1009.0 0.6
20/02:30pm 5.7 -0.8 0.3 68 2.2 NW 24 37 13 20 1009.2 1009.0 0.6
20/02:00pm 5.3 -2.3 0.7 72 1.9 WNW 30 39 16 21 1009.9 1009.7 0.6
20/01:49pm 5.6 -2.3 1.2 73 1.8 WNW 32 50 17 27 1009.7 1009.5 0.6
20/01:30pm 5.6 -2.2 1.9 77 1.6 WNW 32 46 17 25 1009.9 1009.7 0.6
20/01:00pm 4.8 -3.1 2.0 82 1.2 W 33 52 18 28 1010.6 1010.5 0.4
20/12:30pm 6.6 -0.9 3.4 80 1.4 WNW 32 50 17 27 1010.3 1010.1 0.2
20/12:28pm 6.6 -0.2 3.2 79 1.5 WNW 28 46 15 25 1010.3 1010.1 0.0
20/12:00pm 7.8 1.1 3.7 75 1.9 WNW 28 39 15 21 1009.9 1009.7 0.0
20/11:31am 9.0 2.4 4.2 72 2.2 NW 28 46 15 25 1010.1 1009.9 0.0
20/11:30am 8.6 1.4 3.0 68 2.5 NW 30 46 16 25 1010.1 1009.9 0.0
20/11:17am 10.0 2.5 4.4 68 2.6 NW 33 52 18 28 1010.1 1009.9 0.0
20/11:00am 9.1 1.3 3.1 66 2.7 NW 33 50 18 27 1010.1 1009.9 0.0
20/10:30am 9.3 0.5 3.5 67 2.7 NW 39 59 21 32 1010.3 1010.1 0.0
20/10:00am 9.9 0.6 3.0 62 3.2 WNW 41 59 22 32 1010.3 1010.1 0.0
20/09:30am 9.7 -0.1 2.3 60 3.3 WNW 43 61 23 33 1010.1 1009.9 0.0
20/09:00am 10.3 0.6 2.7 59 3.5 WNW 43 63 23 34 1010.5 1010.3 0.0
20/08:30am 10.1 -0.7 2.0 57 3.6 WNW 48 69 26 37 1010.3 1010.1 0.0
20/08:00am 10.1 1.1 2.5 59 3.4 W 39 61 21 33 1010.0 1009.8 0.0
20/07:30am 9.5 -0.4 1.9 59 3.4 W 43 67 23 36 1010.1 1009.9 0.0
20/07:00am 8.9 -0.2 2.0 62 3.1 W 39 59 21 32 1009.8 1009.6 0.0
20/06:30am 8.7 -1.3 2.1 63 2.9 W 44 67 24 36 1009.9 1009.7 0.0
20/06:00am 8.3 0.3 1.7 63 2.9 WNW 33 61 18 33 1010.1 1009.9 0.0
20/05:41am 8.5 1.5 1.9 63 2.9 WNW 28 52 15 28 1010.3 1010.1 0.0
20/05:30am 8.3 2.0 1.7 63 2.9 WNW 24 43 13 23 1010.3 1010.1 0.0
20/05:00am 9.2 3.3 1.6 59 3.3 WNW 22 33 12 18 1010.9 1010.7 0.0
20/04:30am 9.4 1.8 0.8 55 3.7 WNW 30 56 16 30 1010.7 1010.6 0.0
20/04:08am 10.0 2.6 -0.8 47 4.5 WNW 28 48 15 26 1010.7 1010.6 0.0
20/04:00am 9.6 2.1 -1.1 47 4.4 WNW 28 44 15 24 1010.9 1010.7 0.0
20/03:34am 10.1 2.7 -1.0 46 4.6 WNW 28 46 15 25 1010.9 1010.7 0.0
20/03:30am 10.0 3.3 -1.1 46 4.6 WNW 24 43 13 23 1011.0 1010.8 0.0
20/03:00am 10.2 2.3 -1.5 44 4.8 WNW 30 46 16 25 1011.4 1011.2 0.0
20/02:30am 10.5 1.3 -1.5 43 5.0 WNW 37 57 20 31 1011.6 1011.5 0.0
20/02:00am 10.6 1.3 -1.8 42 5.1 WNW 37 59 20 32 1012.0 1011.8 0.0
20/01:30am 10.2 2.3 -1.5 44 4.8 WNW 30 48 16 26 1012.5 1012.4 0.0
20/01:24am 10.2 2.7 -1.5 44 4.8 WNW 28 46 15 25 1012.6 1012.5 0.0
20/01:15am 10.5 3.0 -1.5 43 5.0 WNW 28 46 15 25 1012.9 1012.8 0.0
20/01:00am 10.0 4.2 -1.4 45 4.7 WNW 19 28 10 15 1013.3 1013.1 0.0
20/12:30am 9.7 4.7 -1.3 46 4.5 WNW 15 33 8 18 1013.8 1013.7 0.0
20/12:00am 9.9 4.9 -1.2 46 4.6 NW 15 26 8 14 1014.2 1014.1 0.0
 
Date/Time
EST
Temp
°C
App
Temp
°C
Dew
Point
°C
Rel
Hum
%
Delta-T
°C
Wind Press
QNH
hPa
Press
MSL
hPa
Rain since
9am
mm
Dir  Spd
km/h
Gust
km/h
Spd
kts
Gust
kts
19/11:30pm 9.5 4.5 -0.9 48 4.3 W 15 24 8 13 1014.8 1014.7 0.0
19/11:00pm 8.8 4.2 -0.8 51 4.0 W 13 24 7 13 1015.2 1015.2 0.0
19/10:30pm 9.2 3.9 -0.4 51 4.0 WNW 17 26 9 14 1015.5 1015.4 0.0
19/10:00pm 8.8 3.2 -0.2 53 3.8 WNW 19 26 10 14 1015.7 1015.6 0.0
19/09:30pm 9.3 3.2 0.5 54 3.8 WNW 22 37 12 20 1015.8 1015.7 0.0
19/09:00pm 9.0 2.5 0.5 55 3.6 WNW 24 44 13 24 1016.2 1016.2 0.0
19/08:30pm 8.9 1.7 0.6 56 3.5 WNW 28 37 15 20 1016.4 1016.4 0.0
19/08:00pm 8.7 2.3 0.7 57 3.4 WNW 24 35 13 19 1016.4 1016.4 0.0
19/07:30pm 8.0 2.9 0.5 59 3.2 W 17 26 9 14 1016.7 1016.6 0.0
19/07:00pm 8.0 3.2 0.0 57 3.3 W 15 28 8 15 1016.8 1016.7 0.0
19/06:30pm 8.0 3.1 -0.2 56 3.4 W 15 24 8 13 1016.8 1016.7 0.0
19/06:00pm 8.6 2.8 -0.4 53 3.7 W 20 30 11 16 1016.9 1016.8 0.0
19/05:30pm 9.1 3.2 -0.5 51 4.0 W 20 30 11 16 1016.9 1016.8 0.0
19/05:00pm 10.1 3.6 0.4 51 4.2 WNW 24 35 13 19 1016.8 1016.7 0.0
19/04:30pm 10.6 3.7 0.1 48 4.5 W 26 41 14 22 1016.4 1016.4 0.0
19/04:00pm 11.3 4.3 -0.8 43 5.1 W 26 43 14 23 1016.3 1016.3 0.0
19/03:30pm 11.8 4.8 -0.4 43 5.2 WNW 26 39 14 21 1016.2 1016.2 0.0
19/03:00pm 12.0 4.7 0.1 44 5.2 WNW 28 39 15 21 1016.3 1016.3 0.0
19/02:30pm 12.2 5.6 -0.6 41 5.5 WNW 24 39 13 21 1016.7 1016.6 0.0
19/02:00pm 12.2 4.5 0.0 43 5.3 WNW 30 46 16 25 1017.1 1017.1 0.0
19/01:30pm 11.5 3.4 -0.3 44 5.1 NW 32 50 17 27 1017.4 1017.4 0.0
19/01:28pm 11.9 4.2 -0.3 43 5.3 WNW 30 48 16 26 1017.5 1017.5 0.0
19/01:00pm 11.4 3.2 -0.7 43 5.1 WNW 32 44 17 24 1017.6 1017.6 0.0
19/12:32pm 11.7 3.3 -0.8 42 5.3 WNW 33 52 18 28 1017.6 1017.6 0.0
19/12:30pm 11.8 3.1 -0.7 42 5.3 WNW 35 52 19 28 1017.8 1017.7 0.0
19/12:14pm 11.4 2.5 -2.0 39 5.5 WNW 35 54 19 29 1017.8 1017.7 0.0
19/12:00pm 11.6 3.7 -1.5 40 5.5 WNW 30 46 16 25 1017.8 1017.7 0.0
19/11:31am 11.2 2.8 -2.2 39 5.5 WNW 32 50 17 27 1017.9 1017.8 0.0
19/11:30am 11.5 3.7 -0.6 43 5.2 WNW 30 46 16 25 1017.9 1017.8 0.0
19/11:00am 10.6 2.3 -1.8 42 5.1 WNW 32 50 17 27 1018.1 1018.1 0.0
19/10:59am 10.9 3.0 -1.8 41 5.2 WNW 30 50 16 27 1018.1 1018.1 0.0
19/10:30am 11.0 4.0 -0.2 46 4.8 WNW 26 43 14 23 1018.5 1018.5 0.0
19/10:00am 8.8 1.3 -1.6 48 4.2 WNW 28 43 15 23 1018.6 1018.6 0.0

Latest Capital City Observations: Canberra | Sydney | Melbourne | Brisbane | Adelaide | Perth | Hobart | Darwin

Other formats

Comma delimited format used in spreadsheet applications
http://www.bom.gov.au/fwo/IDN60903/IDN60903.94921.axf

JavaScript Object Notation format (JSON) in row-major order
http://www.bom.gov.au/fwo/IDN60903/IDN60903.94921.json

Data quality

Most of these data are generated automatically and are frequently updated. Quality checks on data are not normally performed. It is possible for incorrect values to appear. Refer to information at About Latest Weather Observations and please check the disclaimer before using these data.